Time;durP1;ratioP1;P1;durP2;ratioP2;P2;SDS_P1;SDS_P2;PMS_P1;PMS_P2;Temp;Humidity;BMP_temperature;BMP_pressure;BME280_temperature;BME280_humidity;BME280_pressure;Samples;Min_cycle;Max_cycle;Signal;HPM_P1;HPM_P2
2021/09/24 00:00:41;;;;;;;;;;;;;;;21.88;63.42;100062.97;2080087;28;19909;-63
2021/09/24 00:01:41;;;;;;;;;;;;;;;21.87;63.39;100062.13;2075823;28;19916;-63
2021/09/24 00:02:41;;;;;;;;;;;;;;;21.88;63.26;100054.75;2081004;28;19916;-63
2021/09/24 00:03:42;;;;;;;;;;;;;;;21.88;63.39;100060.22;2086716;28;19966;-64
2021/09/24 00:04:42;;;;;;;;;;;;;;;21.88;63.50;100057.50;2088791;28;20409;-63
2021/09/24 00:05:42;;;;;;;;;;;;;;;21.87;63.62;100053.03;2089464;28;19909;-61
2021/09/24 00:06:43;;;;;;;;;;;;;;;21.87;63.59;100053.03;2083325;28;19946;-62
2021/09/24 00:07:44;;;;;;;;;;;;;;;21.87;63.63;100050.31;2083300;28;19928;-62
2021/09/24 00:08:44;;;;;;;;;;;;;;;21.88;63.36;100049.25;2091812;28;19915;-62
2021/09/24 00:09:45;;;;;;;;;;;;;;;21.87;63.56;100047.56;2091939;28;19913;-62
2021/09/24 00:10:45;;;;;;;;;;;;;;;21.87;63.44;100042.06;2092132;28;19909;-61
2021/09/24 00:11:46;;;;;;;;;;;;;;;21.88;63.48;100054.75;2083236;28;19909;-62
2021/09/24 00:12:46;;;;;;;;;;;;;;;21.87;63.43;100048.41;2083333;28;19920;-62
2021/09/24 00:13:46;;;;;;;;;;;;;;;21.88;63.56;100049.25;2092250;28;19915;-62
2021/09/24 00:14:47;;;;;;;;;;;;;;;21.87;63.30;100039.31;2091915;28;19908;-62
2021/09/24 00:15:47;;;;;;;;;;;;;;;21.86;63.34;100043.09;2092215;28;20403;-62
2021/09/24 00:16:47;;;;;;;;;;;;;;;21.86;63.52;100040.38;2092870;28;19959;-61
2021/09/24 00:17:48;;;;;;;;;;;;;;;21.87;63.63;100047.56;2092211;28;19909;-62
2021/09/24 00:18:48;;;;;;;;;;;;;;;21.87;63.61;100037.44;2092682;28;20334;-61
2021/09/24 00:19:51;;;;;;;;;;;;;;;21.87;63.38;100042.06;2092083;28;19999;-61
2021/09/24 00:20:51;;;;;;;;;;;;;;;21.87;63.56;100031.94;2091957;28;20003;-62
2021/09/24 00:21:52;;;;;;;;;;;;;;;21.87;63.69;100036.56;2083171;28;19909;-62
2021/09/24 00:22:52;;;;;;;;;;;;;;;21.86;63.48;100037.63;2074855;28;19909;-62
2021/09/24 00:23:53;;;;;;;;;;;;;;;21.87;63.70;100036.56;2082939;28;19915;-61
2021/09/24 00:24:53;;;;;;;;;;;;;;;21.86;63.39;100037.63;2083482;28;19984;-61
2021/09/24 00:25:53;;;;;;;;;;;;;;;21.86;63.58;100037.63;2092240;28;19956;-62
2021/09/24 00:26:54;;;;;;;;;;;;;;;21.87;63.33;100031.09;2091919;28;20290;-62
2021/09/24 00:27:54;;;;;;;;;;;;;;;21.86;63.53;100037.63;2092125;28;19943;-61
2021/09/24 00:28:54;;;;;;;;;;;;;;;21.87;63.33;100042.06;2092169;28;19913;-62
2021/09/24 00:29:54;;;;;;;;;;;;;;;21.87;63.37;100042.06;2091903;28;19916;-62
2021/09/24 00:30:55;;;;;;;;;;;;;;;21.87;63.54;100042.06;2091988;28;19962;-62
2021/09/24 00:31:55;;;;;;;;;;;;;;;21.87;63.56;100042.06;2082449;28;19909;-61
2021/09/24 00:32:56;;;;;;;;;;;;;;;21.87;63.62;100042.06;2082709;28;19957;-61
2021/09/24 00:33:56;;;;;;;;;;;;;;;21.87;63.57;100039.31;2083317;28;19973;-62
2021/09/24 00:34:56;;;;;;;;;;;;;;;21.87;63.33;100042.06;2092041;28;19916;-61
2021/09/24 00:35:57;;;;;;;;;;;;;;;21.87;63.51;100042.91;2083443;28;20394;-62
2021/09/24 00:36:58;;;;;;;;;;;;;;;21.87;63.35;100042.91;2083222;28;19944;-61
2021/09/24 00:37:58;;;;;;;;;;;;;;;21.87;63.38;100042.06;2091999;28;19905;-62
2021/09/24 00:38:58;;;;;;;;;;;;;;;21.87;63.44;100042.06;2091855;28;20409;-62
2021/09/24 00:39:59;;;;;;;;;;;;;;;21.86;63.47;100034.88;2091942;28;19963;-62
2021/09/24 00:40:59;;;;;;;;;;;;;;;21.87;63.56;100042.06;2091882;28;20358;-62
2021/09/24 00:41:59;;;;;;;;;;;;;;;21.86;63.36;100032.13;2091978;28;19913;-61
2021/09/24 00:43:01;;;;;;;;;;;;;;;21.85;63.47;100031.25;2092097;28;19970;-62
2021/09/24 00:44:03;;;;;;;;;;;;;;;21.86;63.41;100029.38;2091895;28;19955;-61
2021/09/24 00:45:04;;;;;;;;;;;;;;;21.87;63.62;100036.56;2092034;28;19916;-60
2021/09/24 00:46:05;;;;;;;;;;;;;;;21.86;63.32;100034.88;2091886;28;19956;-61
2021/09/24 00:47:06;;;;;;;;;;;;;;;21.86;63.47;100034.88;2083031;28;19916;-61
2021/09/24 00:48:07;;;;;;;;;;;;;;;21.85;63.64;100028.50;2074727;28;20415;-61
2021/09/24 00:49:07;;;;;;;;;;;;;;;21.86;63.72;100037.63;2082978;28;20023;-61
2021/09/24 00:50:08;;;;;;;;;;;;;;;21.86;63.52;100029.38;2091932;28;19912;-61
2021/09/24 00:51:09;;;;;;;;;;;;;;;21.86;63.41;100023.91;2082761;28;19913;-61
2021/09/24 00:52:09;;;;;;;;;;;;;;;21.85;63.55;100025.75;2083182;28;20417;-61
2021/09/24 00:53:10;;;;;;;;;;;;;;;21.84;63.71;100022.16;2091752;28;19909;-61
2021/09/24 00:54:10;;;;;;;;;;;;;;;21.84;63.52;100022.16;2091955;28;19912;-62
2021/09/24 00:55:11;;;;;;;;;;;;;;;21.86;63.68;100023.91;2081769;28;19944;-62
2021/09/24 00:56:12;;;;;;;;;;;;;;;21.86;63.55;100023.91;2074661;28;19909;-62
2021/09/24 00:57:13;;;;;;;;;;;;;;;21.86;63.38;100018.41;2083785;28;19909;-61
2021/09/24 00:58:13;;;;;;;;;;;;;;;21.86;63.59;100019.25;2083692;28;19909;-62
2021/09/24 00:59:13;;;;;;;;;;;;;;;21.85;63.65;100025.75;2083507;28;20315;-62
2021/09/24 01:00:14;;;;;;;;;;;;;;;21.85;63.67;100023.00;2083605;28;19909;-62
2021/09/24 01:01:14;;;;;;;;;;;;;;;21.86;63.45;100029.38;2083132;28;20012;-62
2021/09/24 01:02:15;;;;;;;;;;;;;;;21.84;63.59;100022.16;2083563;28;19909;-61
2021/09/24 01:03:15;;;;;;;;;;;;;;;21.85;63.56;100028.50;2083381;28;19916;-62
2021/09/24 01:04:15;;;;;;;;;;;;;;;21.84;63.75;100022.16;2083445;28;19909;-62
2021/09/24 01:05:16;;;;;;;;;;;;;;;21.85;63.62;100025.75;2083492;28;20394;-61
2021/09/24 01:06:16;;;;;;;;;;;;;;;21.85;63.71;100034.00;2074472;28;20305;-62
2021/09/24 01:07:16;;;;;;;;;;;;;;;21.84;63.55;100022.16;2074745;28;19913;-62
2021/09/24 01:08:17;;;;;;;;;;;;;;;21.86;63.42;100032.13;2083436;28;19909;-62
2021/09/24 01:09:17;;;;;;;;;;;;;;;21.84;63.41;100022.16;2083418;28;19909;-62
2021/09/24 01:10:18;;;;;;;;;;;;;;;21.84;63.68;100027.66;2083418;28;19909;-62
2021/09/24 01:11:18;;;;;;;;;;;;;;;21.84;63.59;100021.31;2083397;28;19913;-62
2021/09/24 01:12:19;;;;;;;;;;;;;;;21.85;63.51;100023.00;2086955;28;19913;-62
2021/09/24 01:13:19;;;;;;;;;;;;;;;21.85;63.57;100017.53;2099946;28;19912;-62
2021/09/24 01:14:19;;;;;;;;;;;;;;;21.84;63.60;100011.19;2099842;28;19916;-62
2021/09/24 01:15:20;;;;;;;;;;;;;;;21.83;63.51;100014.97;2099812;28;19909;-61
2021/09/24 01:16:20;;;;;;;;;;;;;;;21.84;63.62;100015.81;2099928;28;19908;-61
2021/09/24 01:17:21;;;;;;;;;;;;;;;21.83;63.45;100014.97;2098063;28;19915;-62
2021/09/24 01:18:21;;;;;;;;;;;;;;;21.84;63.72;100013.94;2091656;28;20371;-62
2021/09/24 01:19:22;;;;;;;;;;;;;;;21.83;63.45;100014.97;2082586;28;19943;-61
2021/09/24 01:20:22;;;;;;;;;;;;;;;21.84;63.59;100016.69;2082640;28;19956;-62
2021/09/24 01:21:23;;;;;;;;;;;;;;;21.83;63.72;100009.50;2091597;28;19908;-62
2021/09/24 01:22:24;;;;;;;;;;;;;;;21.85;63.53;100014.78;2091621;28;19908;-62
2021/09/24 01:23:24;;;;;;;;;;;;;;;21.83;63.54;100012.22;2082658;28;19916;-61
2021/09/24 01:24:25;;;;;;;;;;;;;;;21.83;63.65;100006.75;2082902;28;19909;-62
2021/09/24 01:25:25;;;;;;;;;;;;;;;21.83;63.67;100004.00;2091490;28;19908;-61
2021/09/24 01:26:25;;;;;;;;;;;;;;;21.83;63.57;100009.50;2091571;28;20007;-62
2021/09/24 01:27:25;;;;;;;;;;;;;;;21.83;63.57;100009.50;2091747;28;19915;-61
2021/09/24 01:28:26;;;;;;;;;;;;;;;21.84;63.50;100004.84;2091571;28;19955;-62
2021/09/24 01:29:27;;;;;;;;;;;;;;;21.84;63.49;100013.09;2091797;28;19908;-61
2021/09/24 01:30:27;;;;;;;;;;;;;;;21.83;63.60;100014.97;2091616;28;19909;-60
2021/09/24 01:31:27;;;;;;;;;;;;;;;21.82;63.48;100015.97;2091655;28;20318;-62
2021/09/24 01:32:28;;;;;;;;;;;;;;;21.83;63.75;100008.63;2091533;28;19909;-62
2021/09/24 01:33:28;;;;;;;;;;;;;;;21.83;63.33;100016.88;2091648;28;20386;-62
2021/09/24 01:34:29;;;;;;;;;;;;;;;21.84;63.45;100010.34;2091591;28;20417;-62
2021/09/24 01:35:29;;;;;;;;;;;;;;;21.83;63.46;100004.00;2091352;28;19913;-61
2021/09/24 01:36:29;;;;;;;;;;;;;;;21.83;63.64;100001.25;2091682;28;19916;-62
2021/09/24 01:37:29;;;;;;;;;;;;;;;21.83;63.79;100009.50;2091492;28;19908;-61
2021/09/24 01:38:30;;;;;;;;;;;;;;;21.84;63.65;100000.22;2091567;28;19908;-62
2021/09/24 01:39:30;;;;;;;;;;;;;;;21.83;63.68;99993.03;2091643;28;19912;-62
2021/09/24 01:40:30;;;;;;;;;;;;;;;21.84;63.42;99993.88;2084105;28;20264;-62
2021/09/24 01:41:31;;;;;;;;;;;;;;;21.82;63.53;99996.78;2083148;28;19912;-62
2021/09/24 01:42:31;;;;;;;;;;;;;;;21.82;63.51;99998.66;2074170;28;20012;-61
2021/09/24 01:43:32;;;;;;;;;;;;;;;21.82;63.64;100007.75;2074363;28;19916;-61
2021/09/24 01:44:33;;;;;;;;;;;;;;;21.83;63.79;100003.16;2083043;28;19909;-62
2021/09/24 01:45:33;;;;;;;;;;;;;;;21.82;63.59;100002.25;2083110;28;19916;-62
2021/09/24 01:46:37;;;;;;;;;;;;;;;21.83;63.57;99998.50;2074232;28;19952;-61
2021/09/24 01:47:38;;;;;;;;;;;;;;;21.83;63.34;100003.16;2074797;28;20009;-62
2021/09/24 01:48:41;;;;;;;;;;;;;;;21.83;63.54;99998.50;2083176;28;20372;-62
2021/09/24 01:49:41;;;;;;;;;;;;;;;21.82;63.46;99990.44;2082955;28;19913;-61
2021/09/24 01:50:41;;;;;;;;;;;;;;;21.82;63.48;99996.78;2083126;28;20421;-62
2021/09/24 01:51:43;;;;;;;;;;;;;;;21.81;63.82;99994.22;2083092;28;19909;-61
2021/09/24 01:52:44;;;;;;;;;;;;;;;21.82;63.43;99991.28;2099007;28;19934;-61
2021/09/24 01:53:44;;;;;;;;;;;;;;;21.82;63.65;99991.28;2100078;28;19940;-60
2021/09/24 01:54:44;;;;;;;;;;;;;;;21.82;63.69;99996.78;2090963;28;19962;-62
2021/09/24 01:55:45;;;;;;;;;;;;;;;21.82;63.75;99985.81;2090693;28;20042;-61
2021/09/24 01:56:45;;;;;;;;;;;;;;;21.82;63.81;99987.69;2099646;28;20433;-61
2021/09/24 01:57:45;;;;;;;;;;;;;;;21.82;63.71;99990.44;2099575;28;20274;-61
2021/09/24 01:58:46;;;;;;;;;;;;;;;21.82;63.60;99985.81;2099663;28;19919;-61
2021/09/24 01:59:46;;;;;;;;;;;;;;;21.82;63.41;99991.28;2083896;28;19995;-61
2021/09/24 02:00:46;;;;;;;;;;;;;;;21.81;63.65;99978.63;2082468;28;20435;-61
2021/09/24 02:01:47;;;;;;;;;;;;;;;21.82;63.69;99985.81;2091438;28;19908;-62
2021/09/24 02:02:47;;;;;;;;;;;;;;;21.83;63.85;99981.19;2091373;28;19908;-62
2021/09/24 02:03:47;;;;;;;;;;;;;;;21.82;63.60;99984.94;2091233;28;19908;-62
2021/09/24 02:04:48;;;;;;;;;;;;;;;21.82;63.53;99979.47;2091332;28;19962;-61
2021/09/24 02:05:48;;;;;;;;;;;;;;;21.81;63.74;99981.34;2091401;28;19909;-62
2021/09/24 02:06:48;;;;;;;;;;;;;;;21.81;63.75;99975.88;2091465;28;20371;-62
2021/09/24 02:07:48;;;;;;;;;;;;;;;21.82;63.74;99974.81;2091398;28;19920;-62
2021/09/24 02:08:49;;;;;;;;;;;;;;;21.82;63.56;99974.81;2082437;28;19912;-62
2021/09/24 02:09:49;;;;;;;;;;;;;;;21.82;63.43;99974.81;2082455;28;20418;-62
2021/09/24 02:10:49;;;;;;;;;;;;;;;21.82;63.71;99969.34;2091343;28;20287;-62
2021/09/24 02:11:50;;;;;;;;;;;;;;;21.82;63.56;99969.34;2091511;28;20364;-62
2021/09/24 02:12:50;;;;;;;;;;;;;;;21.82;63.77;99972.09;2091394;28;19909;-62
2021/09/24 02:13:50;;;;;;;;;;;;;;;21.82;63.65;99969.34;2091206;28;19909;-60
2021/09/24 02:14:51;;;;;;;;;;;;;;;21.81;63.67;99975.88;2091273;28;19956;-61
2021/09/24 02:15:51;;;;;;;;;;;;;;;21.82;63.66;99973.97;2091311;28;19909;-61
2021/09/24 02:16:51;;;;;;;;;;;;;;;21.81;63.65;99959.41;2091404;28;19909;-62
2021/09/24 02:17:52;;;;;;;;;;;;;;;21.82;63.51;99968.50;2091479;28;20335;-62
2021/09/24 02:18:52;;;;;;;;;;;;;;;21.81;63.71;99962.16;2091336;28;19963;-61
2021/09/24 02:19:52;;;;;;;;;;;;;;;21.81;63.48;99970.38;2091363;28;19943;-62
2021/09/24 02:20:53;;;;;;;;;;;;;;;21.82;63.59;99957.50;2091136;28;19916;-61
2021/09/24 02:21:53;;;;;;;;;;;;;;;21.81;63.68;99956.66;2091221;28;19916;-62
2021/09/24 02:22:53;;;;;;;;;;;;;;;21.80;63.76;99960.44;2091424;28;19930;-62
2021/09/24 02:23:55;;;;;;;;;;;;;;;21.80;63.50;99960.44;2091135;28;20283;-62
2021/09/24 02:24:56;;;;;;;;;;;;;;;21.81;63.60;99959.41;2091127;28;19998;-61
2021/09/24 02:25:56;;;;;;;;;;;;;;;21.82;63.72;99963.00;2091020;28;19909;-61
2021/09/24 02:26:56;;;;;;;;;;;;;;;21.81;63.68;99962.16;2091157;28;19908;-62
2021/09/24 02:27:57;;;;;;;;;;;;;;;21.81;63.70;99966.78;2090828;28;19916;-62
2021/09/24 02:28:58;;;;;;;;;;;;;;;21.82;63.64;99963.00;2090892;28;19909;-61
2021/09/24 02:29:58;;;;;;;;;;;;;;;21.81;63.58;99961.28;2090968;28;19959;-61
2021/09/24 02:30:58;;;;;;;;;;;;;;;21.80;63.74;99965.94;2082202;28;19909;-61
2021/09/24 02:31:59;;;;;;;;;;;;;;;21.80;63.55;99960.44;2082337;28;19919;-62
2021/09/24 02:32:59;;;;;;;;;;;;;;;21.81;63.73;99956.66;2091017;28;20347;-61
2021/09/24 02:34:00;;;;;;;;;;;;;;;21.81;63.77;99953.06;2091117;28;19912;-61
2021/09/24 02:35:00;;;;;;;;;;;;;;;21.80;63.67;99954.97;2082125;28;19909;-62
2021/09/24 02:36:01;;;;;;;;;;;;;;;21.81;63.60;99953.91;2082300;28;19909;-61
2021/09/24 02:37:01;;;;;;;;;;;;;;;21.80;63.77;99949.47;2082001;28;19992;-61
2021/09/24 02:38:01;;;;;;;;;;;;;;;21.81;63.53;99951.16;2082351;28;20034;-61
2021/09/24 02:39:02;;;;;;;;;;;;;;;21.80;63.72;99949.47;2090942;28;19908;-61
2021/09/24 02:40:03;;;;;;;;;;;;;;;21.79;63.61;99945.00;2091149;28;19909;-61
2021/09/24 02:41:03;;;;;;;;;;;;;;;21.81;63.68;99951.16;2091050;28;20420;-61
2021/09/24 02:42:04;;;;;;;;;;;;;;;21.80;63.79;99952.22;2091069;28;19912;-61
2021/09/24 02:43:04;;;;;;;;;;;;;;;21.81;63.73;99947.59;2090952;28;20278;-61
2021/09/24 02:44:05;;;;;;;;;;;;;;;21.80;63.51;99949.47;2091139;28;19908;-61
2021/09/24 02:45:06;;;;;;;;;;;;;;;21.80;63.49;99954.97;2091150;28;19963;-61
2021/09/24 02:46:07;;;;;;;;;;;;;;;21.81;63.61;99961.28;2091075;28;19908;-61
2021/09/24 02:47:09;;;;;;;;;;;;;;;21.80;63.62;99954.97;2091033;28;19951;-61
2021/09/24 02:48:09;;;;;;;;;;;;;;;21.80;63.52;99954.97;2091213;28;20310;-61
2021/09/24 02:49:09;;;;;;;;;;;;;;;21.80;63.70;99957.69;2091143;28;19916;-61
2021/09/24 02:50:11;;;;;;;;;;;;;;;21.80;63.58;99957.69;2090867;28;19956;-61
2021/09/24 02:51:11;;;;;;;;;;;;;;;21.80;63.72;99959.56;2081959;28;19909;-61
2021/09/24 02:52:13;;;;;;;;;;;;;;;21.80;63.53;99954.06;2082010;28;19917;-61
2021/09/24 02:53:13;;;;;;;;;;;;;;;21.80;63.77;99957.69;2082043;28;19909;-61
2021/09/24 02:54:14;;;;;;;;;;;;;;;21.80;63.77;99954.06;2086504;28;19916;-61
2021/09/24 02:55:15;;;;;;;;;;;;;;;21.80;63.58;99954.97;2083838;28;19909;-61
2021/09/24 02:56:15;;;;;;;;;;;;;;;21.80;63.62;99956.81;2088887;28;19909;-61
2021/09/24 02:57:16;;;;;;;;;;;;;;;21.79;63.52;99953.22;2101317;28;19914;-63
2021/09/24 02:58:16;;;;;;;;;;;;;;;21.80;63.68;99956.81;2101553;28;20342;-61
2021/09/24 02:59:16;;;;;;;;;;;;;;;21.79;63.72;99947.75;2093889;28;19908;-62
2021/09/24 03:00:17;;;;;;;;;;;;;;;21.81;63.52;99950.31;2093562;28;20409;-61
2021/09/24 03:01:17;;;;;;;;;;;;;;;21.79;63.70;99947.75;2093894;28;19908;-61
2021/09/24 03:02:18;;;;;;;;;;;;;;;21.80;63.69;99954.97;2093742;28;19920;-61
2021/09/24 03:03:18;;;;;;;;;;;;;;;21.80;63.60;99957.69;2093715;28;19908;-61
2021/09/24 03:04:18;;;;;;;;;;;;;;;21.79;63.70;99952.38;2093630;28;19967;-61
2021/09/24 03:05:19;;;;;;;;;;;;;;;21.78;63.72;99950.66;2093467;28;19920;-61
2021/09/24 03:06:19;;;;;;;;;;;;;;;21.79;63.85;99947.75;2093617;28;19912;-61
2021/09/24 03:07:19;;;;;;;;;;;;;;;21.78;63.56;99946.03;2093652;28;19912;-61
2021/09/24 03:08:20;;;;;;;;;;;;;;;21.79;63.59;99946.88;2093860;28;19909;-61
2021/09/24 03:09:20;;;;;;;;;;;;;;;21.78;63.63;99946.03;2093461;28;19931;-61
2021/09/24 03:10:20;;;;;;;;;;;;;;;21.78;63.58;99950.66;2093574;28;19909;-61
2021/09/24 03:11:21;;;;;;;;;;;;;;;21.79;63.60;99953.22;2093694;28;19958;-61
2021/09/24 03:12:21;;;;;;;;;;;;;;;21.79;63.47;99947.75;2093792;28;19912;-61
2021/09/24 03:13:21;;;;;;;;;;;;;;;21.78;63.64;99948.78;2093803;28;19909;-61
2021/09/24 03:14:22;;;;;;;;;;;;;;;21.78;63.44;99951.53;2093921;28;19908;-61
2021/09/24 03:15:22;;;;;;;;;;;;;;;21.78;63.54;99946.03;2093750;28;20387;-61
2021/09/24 03:16:22;;;;;;;;;;;;;;;21.78;63.67;99951.53;2100895;28;19931;-61
2021/09/24 03:17:23;;;;;;;;;;;;;;;21.79;63.77;99949.63;2093116;28;19940;-61
2021/09/24 03:18:23;;;;;;;;;;;;;;;21.79;63.68;99955.13;2093044;28;19909;-61
2021/09/24 03:19:23;;;;;;;;;;;;;;;21.78;63.67;99954.28;2093080;28;19908;-62
2021/09/24 03:20:24;;;;;;;;;;;;;;;21.79;63.77;99953.22;2101691;28;19908;-61
2021/09/24 03:21:24;;;;;;;;;;;;;;;21.78;63.77;99948.78;2101867;28;19908;-62
2021/09/24 03:22:25;;;;;;;;;;;;;;;21.79;63.70;99952.38;2101910;28;20296;-62
2021/09/24 03:23:25;;;;;;;;;;;;;;;21.79;63.78;99946.88;2102034;28;19905;-62
2021/09/24 03:24:25;;;;;;;;;;;;;;;21.80;63.50;99948.59;2102076;28;19913;-61
2021/09/24 03:25:26;;;;;;;;;;;;;;;21.79;63.44;99947.75;2102371;28;19908;-62
2021/09/24 03:26:26;;;;;;;;;;;;;;;21.78;63.67;99951.53;2101885;28;19908;-62
2021/09/24 03:27:27;;;;;;;;;;;;;;;21.78;63.56;99946.03;2092945;28;19909;-62
2021/09/24 03:28:27;;;;;;;;;;;;;;;21.79;63.76;99953.22;2093174;28;19909;-62
2021/09/24 03:29:28;;;;;;;;;;;;;;;21.78;63.70;99951.53;2101922;28;19961;-62
2021/09/24 03:30:28;;;;;;;;;;;;;;;21.79;63.52;99953.22;2102055;28;20321;-61
2021/09/24 03:31:28;;;;;;;;;;;;;;;21.77;63.79;99952.53;2101866;28;20355;-62
2021/09/24 03:32:29;;;;;;;;;;;;;;;21.77;63.67;99952.53;2101871;28;19955;-62
2021/09/24 03:33:29;;;;;;;;;;;;;;;21.77;63.59;99955.28;2101991;28;19912;-62
2021/09/24 03:34:30;;;;;;;;;;;;;;;21.77;63.59;99960.75;2102044;28;19919;-62
2021/09/24 03:35:31;;;;;;;;;;;;;;;21.77;63.58;99955.28;2102021;28;19966;-61
2021/09/24 03:36:31;;;;;;;;;;;;;;;21.77;63.64;99960.75;2092800;28;19912;-61
2021/09/24 03:37:31;;;;;;;;;;;;;;;21.77;63.64;99960.75;2092827;28;19909;-61
2021/09/24 03:38:32;;;;;;;;;;;;;;;21.78;63.55;99961.66;2092973;28;19930;-62
2021/09/24 03:39:32;;;;;;;;;;;;;;;21.78;63.72;99956.16;2092932;28;19913;-62
2021/09/24 03:40:32;;;;;;;;;;;;;;;21.78;63.66;99958.91;2092933;28;19912;-61
2021/09/24 03:41:33;;;;;;;;;;;;;;;21.77;63.81;99955.28;2093121;28;20002;-61
2021/09/24 03:42:33;;;;;;;;;;;;;;;21.77;63.58;99955.28;2102218;28;19908;-61
2021/09/24 03:43:34;;;;;;;;;;;;;;;21.78;63.77;99958.91;2102059;28;20412;-62
2021/09/24 03:44:34;;;;;;;;;;;;;;;21.78;63.76;99958.91;2092887;28;20375;-61
2021/09/24 03:45:35;;;;;;;;;;;;;;;21.78;63.65;99958.91;2092875;28;19908;-62
2021/09/24 03:46:35;;;;;;;;;;;;;;;21.78;63.77;99962.50;2101840;28;19908;-62
2021/09/24 03:47:35;;;;;;;;;;;;;;;21.77;63.79;99971.75;2101771;28;19908;-61
2021/09/24 03:48:36;;;;;;;;;;;;;;;21.77;63.82;99962.66;2101885;28;19915;-61
2021/09/24 03:49:36;;;;;;;;;;;;;;;21.76;63.64;99964.56;2101788;28;19916;-62
2021/09/24 03:50:36;;;;;;;;;;;;;;;21.76;63.92;99959.06;2101851;28;19963;-62
2021/09/24 03:51:37;;;;;;;;;;;;;;;21.76;63.75;99964.56;2101785;28;19931;-61
2021/09/24 03:52:37;;;;;;;;;;;;;;;21.77;63.64;99954.44;2101763;28;19908;-61
2021/09/24 03:53:37;;;;;;;;;;;;;;;21.76;63.68;99952.72;2095867;28;19913;-62
2021/09/24 03:54:38;;;;;;;;;;;;;;;21.77;63.67;99959.91;2101837;28;19915;-62
2021/09/24 03:55:38;;;;;;;;;;;;;;;21.76;63.74;99953.56;2101906;28;19913;-61
2021/09/24 03:56:38;;;;;;;;;;;;;;;21.77;63.81;99948.94;2101651;28;19947;-62
2021/09/24 03:57:39;;;;;;;;;;;;;;;21.77;63.62;99948.94;2102118;28;19912;-61
2021/09/24 03:58:39;;;;;;;;;;;;;;;21.77;63.73;99954.44;2101853;28;19931;-62
2021/09/24 03:59:39;;;;;;;;;;;;;;;21.76;63.62;99953.56;2101517;28;19917;-61
2021/09/24 04:00:40;;;;;;;;;;;;;;;21.77;63.61;99955.28;2101969;28;20002;-61
2021/09/24 04:01:40;;;;;;;;;;;;;;;21.76;63.56;99948.09;2101954;28;19915;-62
2021/09/24 04:02:40;;;;;;;;;;;;;;;21.76;63.75;99950.84;2101750;28;19908;-62
2021/09/24 04:03:43;;;;;;;;;;;;;;;21.76;63.75;99953.56;2102095;28;19908;-62
2021/09/24 04:04:44;;;;;;;;;;;;;;;21.77;63.66;99954.44;2092915;28;19909;-61
2021/09/24 04:05:45;;;;;;;;;;;;;;;21.76;63.77;99953.56;2092957;28;19908;-60
2021/09/24 04:06:45;;;;;;;;;;;;;;;21.77;63.87;99951.69;2092119;28;19912;-62
2021/09/24 04:07:46;;;;;;;;;;;;;;;21.76;63.56;99948.09;2091597;28;19944;-62
2021/09/24 04:08:46;;;;;;;;;;;;;;;21.76;63.85;99948.09;2091880;28;19912;-62
2021/09/24 04:09:47;;;;;;;;;;;;;;;21.76;63.73;99948.09;2085854;28;19913;-62
2021/09/24 04:10:47;;;;;;;;;;;;;;;21.76;63.61;99948.09;2092201;28;19909;-61
2021/09/24 04:11:47;;;;;;;;;;;;;;;21.75;63.75;99940.88;2092297;28;19905;-62
2021/09/24 04:12:48;;;;;;;;;;;;;;;21.76;63.56;99947.25;2083079;28;20415;-62
2021/09/24 04:13:48;;;;;;;;;;;;;;;21.75;63.57;99938.13;2083232;28;20343;-61
2021/09/24 04:14:48;;;;;;;;;;;;;;;21.76;63.70;99945.34;2083403;28;19946;-62
2021/09/24 04:15:49;;;;;;;;;;;;;;;21.76;63.58;99948.09;2083246;28;19984;-61
2021/09/24 04:16:49;;;;;;;;;;;;;;;21.75;63.72;99940.03;2091925;28;19912;-62
2021/09/24 04:17:49;;;;;;;;;;;;;;;21.75;63.67;99940.88;2092158;28;19913;-62
2021/09/24 04:18:50;;;;;;;;;;;;;;;21.76;63.78;99948.09;2091501;28;20379;-61
2021/09/24 04:19:50;;;;;;;;;;;;;;;21.75;63.77;99938.13;2091996;28;19916;-61
2021/09/24 04:20:51;;;;;;;;;;;;;;;21.76;63.71;99947.25;2092241;28;19908;-60
2021/09/24 04:21:51;;;;;;;;;;;;;;;21.76;63.72;99947.25;2083170;28;20039;-60
2021/09/24 04:22:51;;;;;;;;;;;;;;;21.76;63.84;99952.72;2083213;28;19905;-61
2021/09/24 04:23:52;;;;;;;;;;;;;;;21.75;63.48;99951.84;2092082;28;19931;-61
2021/09/24 04:24:52;;;;;;;;;;;;;;;21.76;63.75;99953.56;2091946;28;19909;-61
2021/09/24 04:25:53;;;;;;;;;;;;;;;21.75;63.44;99945.50;2083526;28;19941;-61
2021/09/24 04:26:53;;;;;;;;;;;;;;;21.74;63.68;99950.13;2083248;28;19909;-61
2021/09/24 04:27:53;;;;;;;;;;;;;;;21.75;63.46;99951.00;2091990;28;19912;-61
2021/09/24 04:28:53;;;;;;;;;;;;;;;21.75;63.34;99948.25;2091938;28;19909;-61
2021/09/24 04:29:54;;;;;;;;;;;;;;;21.74;63.59;99955.63;2092080;28;19913;-61
2021/09/24 04:30:54;;;;;;;;;;;;;;;21.74;63.52;99955.63;2092273;28;19916;-62
2021/09/24 04:31:55;;;;;;;;;;;;;;;21.75;63.25;99961.97;2092078;28;19908;-61
2021/09/24 04:32:55;;;;;;;;;;;;;;;21.74;63.50;99965.75;2082973;28;19909;-61
2021/09/24 04:33:55;;;;;;;;;;;;;;;21.73;63.28;99953.94;2083163;28;19912;-60
2021/09/24 04:34:56;;;;;;;;;;;;;;;21.74;63.27;99960.25;2092058;28;19916;-61
2021/09/24 04:35:56;;;;;;;;;;;;;;;21.74;63.33;99949.28;2091928;28;19951;-61
2021/09/24 04:36:56;;;;;;;;;;;;;;;21.73;63.44;99953.94;2083027;28;19995;-61
2021/09/24 04:37:58;;;;;;;;;;;;;;;21.73;63.36;99951.19;2082703;28;19909;-60
2021/09/24 04:39:01;;;;;;;;;;;;;;;21.73;63.36;99953.94;2083249;28;20012;-61
2021/09/24 04:40:02;;;;;;;;;;;;;;;21.74;63.24;99954.78;2083581;28;19909;-62
2021/09/24 04:41:02;;;;;;;;;;;;;;;21.73;63.18;99953.94;2083241;28;19909;-61
2021/09/24 04:42:03;;;;;;;;;;;;;;;21.72;63.45;99957.69;2083257;28;20280;-61
2021/09/24 04:43:03;;;;;;;;;;;;;;;21.73;63.20;99959.41;2091934;28;19952;-61
2021/09/24 04:44:04;;;;;;;;;;;;;;;21.73;63.36;99962.16;2092088;28;19909;-60
2021/09/24 04:45:04;;;;;;;;;;;;;;;21.73;63.28;99959.41;2092134;28;19905;-61
2021/09/24 04:46:05;;;;;;;;;;;;;;;21.73;63.34;99967.63;2091861;28;19915;-61
2021/09/24 04:47:05;;;;;;;;;;;;;;;21.73;63.08;99959.41;2091875;28;19936;-65
2021/09/24 04:48:06;;;;;;;;;;;;;;;21.73;63.29;99958.53;2091294;28;20364;-60
2021/09/24 04:49:06;;;;;;;;;;;;;;;21.73;63.01;99961.28;2090745;28;20382;-61
2021/09/24 04:50:07;;;;;;;;;;;;;;;21.74;63.40;99961.13;2081189;28;19939;-60
2021/09/24 04:51:07;;;;;;;;;;;;;;;21.75;63.23;99957.31;2073320;28;19913;-60
2021/09/24 04:52:08;;;;;;;;;;;;;;;21.75;63.17;99953.72;2069307;28;19975;-60
2021/09/24 04:53:08;;;;;;;;;;;;;;;21.74;63.15;99961.13;2080782;28;19917;-60
2021/09/24 04:54:08;;;;;;;;;;;;;;;21.75;63.18;99953.72;2079736;28;20388;-60
2021/09/24 04:55:09;;;;;;;;;;;;;;;21.73;63.08;99942.94;2080341;28;19909;-60
2021/09/24 04:56:09;;;;;;;;;;;;;;;21.74;63.11;99950.13;2073511;28;19917;-60
2021/09/24 04:57:09;;;;;;;;;;;;;;;21.73;63.24;99948.44;2071804;28;19923;-60
2021/09/24 04:58:10;;;;;;;;;;;;;;;21.73;63.34;99945.69;2073479;28;19916;-60
2021/09/24 04:59:10;;;;;;;;;;;;;;;21.74;62.97;99943.81;2072746;28;19920;-60
2021/09/24 05:00:11;;;;;;;;;;;;;;;21.73;63.21;99945.69;2082303;28;19921;-60
2021/09/24 05:01:12;;;;;;;;;;;;;;;21.73;62.98;99950.28;2078908;28;20372;-60
2021/09/24 05:02:14;;;;;;;;;;;;;;;21.73;63.02;99950.28;2073144;28;19916;-60
2021/09/24 05:03:15;;;;;;;;;;;;;;;21.72;63.25;99946.72;2073209;28;19913;-60
2021/09/24 05:04:15;;;;;;;;;;;;;;;21.73;62.98;99947.56;2077392;28;19908;-60
2021/09/24 05:05:16;;;;;;;;;;;;;;;21.72;62.98;99941.22;2081782;28;19966;-60
2021/09/24 05:06:16;;;;;;;;;;;;;;;21.72;63.10;99935.72;2081876;28;20291;-60
2021/09/24 05:07:17;;;;;;;;;;;;;;;21.72;63.13;99946.72;2077682;28;19905;-60
2021/09/24 05:08:17;;;;;;;;;;;;;;;21.72;62.95;99941.22;2075107;28;19963;-60
2021/09/24 05:09:18;;;;;;;;;;;;;;;21.72;62.95;99946.72;2064294;28;19909;-60
2021/09/24 05:10:18;;;;;;;;;;;;;;;21.73;63.06;99947.56;2071533;28;19913;-60
2021/09/24 05:11:19;;;;;;;;;;;;;;;21.72;63.06;99946.72;2070452;28;20456;-60
2021/09/24 05:12:20;;;;;;;;;;;;;;;21.73;63.06;99948.44;2073310;28;19917;-60
2021/09/24 05:13:20;;;;;;;;;;;;;;;21.72;62.92;99946.72;2077106;28;20058;-60